6AK weather

Rainy Pass Lodge Airport
Rainy Pass, Alaska, United States

Public forecast

Using degrees Fahrenheit for public forecast. Weather courtesy of forecast.io.

Closest aviation weather report (METAR) to Rainy Pass Lodge Airport

Report is more than 6 hours old.

Closest report is Tin Creek Airport, 36.6 nm (67.9 km) NW. Retrieved 2015/04/05 02:47 UTC (5 years ago):

PAFL 050247Z 27010G17KT 20SM BKN035 BKN080 04/M03 A2997

Closest aviation forecast (TAF) to Rainy Pass Lodge Airport

Closest forecast is Talkeetna Airport, 74.8 nm (138.6 km) ENE. Retrieved 2019/11/14 12:45 UTC (2 hours ago):

TAF PATK 141143Z 1412/1512 02011G20KT P6SM -RA SCT030 OVC050 FM141400 02010KT 6SM -SN SCT015 OVC035 FM141600 02007KT 3SM -SN BR SCT008 OVC015 FM150300 02006KT P6SM VCSH SCT015 BKN030 FM150600 02006KT P6SM SCT025 BKN060